createdAt,value
2018-12-10T10:34:15.695Z,1.70
2018-12-10T10:36:44.684Z,1.20
2018-12-10T10:39:12.136Z,1.63
2018-12-10T10:41:40.357Z,1.70
2018-12-10T10:44:08.631Z,1.50
2018-12-10T10:46:42.701Z,1.98
2018-12-10T10:49:10.897Z,1.90
2018-12-10T10:51:40.200Z,1.60
2018-12-10T10:54:08.430Z,1.40
2018-12-10T10:56:38.764Z,1.90
2018-12-10T10:59:09.172Z,1.53
2018-12-10T11:01:59.940Z,1.30
2018-12-10T11:04:28.239Z,1.27
2018-12-10T11:07:02.103Z,1.50
2018-12-10T11:09:30.687Z,1.57
2018-12-10T11:11:58.880Z,1.40
2018-12-10T11:14:36.199Z,1.57
2018-12-10T11:17:04.464Z,1.53
2018-12-10T11:19:35.624Z,1.97
2018-12-10T11:22:03.858Z,2.00
2018-12-10T11:24:34.085Z,2.00
2018-12-10T11:27:03.277Z,1.90
2018-12-10T11:29:31.603Z,2.10
2018-12-10T11:32:00.898Z,1.70
2018-12-10T11:34:30.123Z,2.07
2018-12-10T11:36:58.847Z,2.10
2018-12-10T11:39:37.977Z,1.90
2018-12-10T11:42:06.490Z,1.37
2018-12-10T11:44:38.163Z,1.80
2018-12-10T11:47:13.016Z,1.70
2018-12-10T11:50:00.524Z,1.82
2018-12-10T11:52:34.837Z,2.13
2018-12-10T11:55:04.120Z,1.47
2018-12-10T11:57:48.779Z,1.77
2018-12-10T12:00:29.666Z,1.73
2018-12-10T12:02:56.903Z,1.47
2018-12-10T12:05:26.144Z,1.97
2018-12-10T12:07:54.765Z,1.80
2018-12-10T12:10:49.896Z,1.70
2018-12-10T12:13:25.407Z,1.57
2018-12-10T12:16:18.431Z,2.00
2018-12-10T12:19:11.482Z,1.73
2018-12-10T12:21:45.115Z,1.93
2018-12-10T12:24:50.096Z,2.00
2018-12-10T12:27:20.124Z,1.50
2018-12-10T12:30:06.014Z,1.17
2018-12-10T12:33:09.429Z,1.30
2018-12-10T12:35:49.055Z,2.33
2018-12-10T12:38:27.416Z,1.40
2018-12-10T12:40:57.863Z,1.40
2018-12-10T12:43:32.851Z,1.53
2018-12-10T12:46:06.842Z,1.60
2018-12-10T12:48:54.565Z,1.57
2018-12-10T12:51:28.924Z,1.40
2018-12-10T12:54:23.441Z,1.50
2018-12-10T12:57:06.472Z,1.73
2018-12-10T12:59:36.351Z,1.63
2018-12-10T13:02:19.932Z,1.60
2018-12-10T13:05:05.110Z,1.47
2018-12-10T13:07:48.559Z,1.50
2018-12-10T13:10:35.781Z,1.70
2018-12-10T13:13:29.913Z,1.37
2018-12-10T13:16:00.610Z,1.50
2018-12-10T13:18:29.192Z,1.43
2018-12-10T13:21:06.071Z,1.37
2018-12-10T13:23:38.740Z,1.42
2018-12-10T13:26:09.932Z,1.67
2018-12-10T13:28:44.942Z,1.47
2018-12-10T13:31:15.590Z,1.37
2018-12-10T13:33:52.039Z,1.40
2018-12-10T13:36:29.018Z,1.87
2018-12-10T13:38:57.184Z,2.47
2018-12-10T13:41:49.875Z,2.33
2018-12-10T13:44:18.110Z,1.63
2018-12-10T13:46:48.360Z,1.70
2018-12-10T13:49:17.755Z,2.00
2018-12-10T13:51:48.139Z,1.87
2018-12-10T13:54:20.535Z,2.00
2018-12-10T13:56:50.039Z,1.87
2018-12-10T13:59:18.626Z,1.60
2018-12-10T14:01:48.131Z,1.87
2018-12-10T14:04:20.085Z,1.73
2018-12-10T14:06:48.651Z,1.80
2018-12-10T14:09:16.844Z,2.03
2018-12-10T14:11:52.142Z,1.77
2018-12-10T14:14:21.481Z,1.80
2018-12-10T14:16:59.869Z,2.00
2018-12-10T14:19:29.216Z,2.00
2018-12-10T14:21:58.264Z,1.93
2018-12-10T14:24:28.846Z,1.83
2018-12-10T14:27:00.844Z,1.70
2018-12-10T14:29:29.098Z,1.70
2018-12-10T14:32:08.533Z,1.97
2018-12-10T14:34:45.102Z,2.00
2018-12-10T14:37:14.385Z,2.00
2018-12-10T14:39:42.585Z,2.00
2018-12-10T14:42:25.185Z,2.00
2018-12-10T14:44:54.469Z,2.40
2018-12-10T14:47:23.728Z,1.90
2018-12-10T14:49:52.232Z,1.93
2018-12-10T14:52:22.476Z,1.90
2018-12-10T14:54:51.036Z,1.90
2018-12-10T14:57:21.259Z,2.00
2018-12-10T14:59:49.552Z,2.10
2018-12-10T15:02:18.172Z,2.40
2018-12-10T15:04:47.439Z,2.93
2018-12-10T15:07:15.732Z,2.30
2018-12-10T15:09:50.015Z,2.00
2018-12-10T15:12:20.226Z,2.17
2018-12-10T15:14:48.530Z,3.17
2018-12-10T15:17:23.747Z,2.90
2018-12-10T15:19:52.429Z,2.83
2018-12-10T15:22:22.898Z,2.60
2018-12-10T15:24:51.095Z,2.80
2018-12-10T15:27:19.303Z,3.50
2018-12-10T15:29:47.907Z,3.30
2018-12-10T15:32:16.021Z,3.03
2018-12-10T15:34:45.282Z,3.10
2018-12-10T15:37:19.381Z,3.73
2018-12-10T15:39:48.193Z,2.40
2018-12-10T15:42:17.743Z,2.10
2018-12-10T15:44:51.213Z,2.07
2018-12-10T15:47:55.662Z,2.63
2018-12-10T15:51:17.876Z,2.87
2018-12-10T15:53:46.072Z,5.03
2018-12-10T15:56:14.237Z,3.60
2018-12-10T15:58:42.400Z,7.33
2018-12-10T16:01:12.720Z,2.20
2018-12-10T16:04:04.520Z,2.33
2018-12-10T16:06:57.177Z,2.13
2018-12-10T16:09:25.463Z,2.40
2018-12-10T16:11:56.197Z,2.47
2018-12-10T16:14:25.437Z,3.00
2018-12-10T16:16:55.712Z,2.60
2018-12-10T16:19:23.975Z,2.70
2018-12-10T16:22:00.006Z,2.27
2018-12-10T16:24:29.226Z,2.83
2018-12-10T16:26:58.510Z,2.33
2018-12-10T16:29:30.159Z,2.70
2018-12-10T16:31:58.455Z,2.70
2018-12-10T16:34:28.678Z,2.83
2018-12-10T16:37:02.870Z,2.63
2018-12-10T16:39:31.159Z,3.37
2018-12-10T16:42:01.369Z,2.93
2018-12-10T16:44:30.555Z,3.37
2018-12-10T16:46:58.844Z,3.00
2018-12-10T16:49:33.961Z,3.00
2018-12-10T16:52:02.195Z,3.00
2018-12-10T16:54:30.459Z,3.30
2018-12-10T16:56:58.724Z,3.52
2018-12-10T16:59:27.328Z,3.20
2018-12-10T17:01:55.562Z,3.10
2018-12-10T17:04:23.880Z,3.23
2018-12-10T17:06:52.111Z,3.27
2018-12-10T17:09:20.387Z,3.53
2018-12-10T17:11:48.978Z,4.47
2018-12-10T17:14:17.236Z,5.93
2018-12-10T17:16:45.374Z,2.27
2018-12-10T17:19:13.582Z,1.83
2018-12-10T17:21:42.793Z,1.97
2018-12-10T17:24:11.090Z,1.75
2018-12-10T17:26:40.371Z,1.40
2018-12-10T17:29:08.629Z,2.25
2018-12-10T17:31:37.839Z,1.47
2018-12-10T17:34:06.079Z,1.40
2018-12-10T17:36:34.293Z,1.33
2018-12-10T17:39:02.538Z,1.27
2018-12-10T17:41:30.767Z,1.67
2018-12-10T17:43:58.951Z,1.40
2018-12-10T17:46:29.234Z,1.30
2018-12-10T17:48:57.554Z,1.80
2018-12-10T17:51:26.797Z,1.90
2018-12-10T17:53:55.004Z,1.37
2018-12-10T17:56:28.098Z,2.20
2018-12-10T17:58:56.435Z,1.73
2018-12-10T18:01:24.595Z,1.70
2018-12-10T18:03:58.503Z,2.40
2018-12-10T18:06:26.709Z,5.23
2018-12-10T18:08:54.988Z,3.20
2018-12-10T18:11:23.872Z,4.37
2018-12-10T18:13:52.204Z,4.17
2018-12-10T18:16:21.860Z,5.10
2018-12-10T18:18:51.503Z,4.10
2018-12-10T18:21:20.699Z,3.20
2018-12-10T18:23:50.069Z,2.30
2018-12-10T18:26:21.278Z,2.17
2018-12-10T18:28:49.560Z,1.90
2018-12-10T18:31:17.810Z,1.93
2018-12-10T18:33:47.160Z,2.20
2018-12-10T18:36:21.334Z,2.37
2018-12-10T18:39:14.435Z,2.33
2018-12-10T18:41:42.770Z,2.47
2018-12-10T18:44:32.547Z,2.57
2018-12-10T18:47:21.266Z,3.20
2018-12-10T18:53:22.198Z,3.00
2018-12-10T18:56:01.307Z,3.27
2018-12-10T18:59:02.757Z,3.37
2018-12-10T19:01:38.370Z,3.43
2018-12-10T19:04:31.290Z,3.33
2018-12-10T19:07:18.678Z,3.67
2018-12-10T19:09:46.934Z,3.97
2018-12-10T19:12:16.219Z,4.30
2018-12-10T19:15:08.709Z,4.50
2018-12-10T19:18:23.956Z,5.03
